Terminal Aerodrome Forecast
Issued by NWS North Platte, NE

Home | Current Version | Previous Version | Graphics & Text | Print | Product List | Glossary On
Versions: 1 2 3 4 5 6 7 8 9 10 11 12 13 14 15 16 17
000
FTUS43 KLBF 221700
TAFVTN
TAF
KVTN 221720Z 2218/2318 18016G24KT P6SM BKN100
     FM222000 17023G32KT P6SM BKN080
      TEMPO 2222/2302 5SM -SHRA SCT040 BKN070
     FM230200 16016G27KT P6SM OVC050
      TEMPO 2302/2305 5SM SHRA OVC040
     FM230600 16014KT P6SM OVC040 PROB30 2306/2310 5SM -RA SCT020
      OVC030
     FM231200 18010KT P6SM OVC020
     FM231500 19015KT P6SM OVC050=

USA.gov is the U.S. government's official web portal to all federal, state and local government web resources and services.